sensor_id;sensor_type;location;lat;lon;timestamp;pressure;altitude;pressure_sealevel;temperature;humidity
11314;BME280;5712;48.858;9.206;2022-10-22T00:02:17;97916.88;;;13.25;100.00
11314;BME280;5712;48.858;9.206;2022-10-22T00:04:45;97912.53;;;13.24;100.00
11314;BME280;5712;48.858;9.206;2022-10-22T00:07:13;97908.19;;;13.23;100.00
11314;BME280;5712;48.858;9.206;2022-10-22T00:09:40;97919.50;;;13.25;100.00
11314;BME280;5712;48.858;9.206;2022-10-22T00:12:07;97906.75;;;13.19;100.00
11314;BME280;5712;48.858;9.206;2022-10-22T00:14:34;97901.72;;;13.16;100.00
11314;BME280;5712;48.858;9.206;2022-10-22T00:17:01;97889.66;;;13.12;100.00
11314;BME280;5712;48.858;9.206;2022-10-22T00:19:27;97887.66;;;13.04;100.00
11314;BME280;5712;48.858;9.206;2022-10-22T00:21:54;97893.59;;;12.97;100.00
11314;BME280;5712;48.858;9.206;2022-10-22T00:24:24;97893.94;;;12.92;100.00
11314;BME280;5712;48.858;9.206;2022-10-22T00:26:51;97896.47;;;12.94;100.00
11314;BME280;5712;48.858;9.206;2022-10-22T00:29:18;97902.03;;;12.91;100.00
11314;BME280;5712;48.858;9.206;2022-10-22T00:31:45;97890.44;;;12.92;100.00
11314;BME280;5712;48.858;9.206;2022-10-22T00:34:14;97895.03;;;12.90;100.00
11314;BME280;5712;48.858;9.206;2022-10-22T00:36:41;97900.94;;;12.93;100.00
11314;BME280;5712;48.858;9.206;2022-10-22T00:39:08;97907.34;;;12.91;100.00
11314;BME280;5712;48.858;9.206;2022-10-22T00:41:36;97906.88;;;12.86;100.00
11314;BME280;5712;48.858;9.206;2022-10-22T00:44:04;97900.84;;;12.84;100.00
11314;BME280;5712;48.858;9.206;2022-10-22T00:46:31;97910.72;;;12.82;100.00
11314;BME280;5712;48.858;9.206;2022-10-22T00:48:59;97908.44;;;12.88;100.00
11314;BME280;5712;48.858;9.206;2022-10-22T00:51:29;97913.34;;;12.93;100.00
11314;BME280;5712;48.858;9.206;2022-10-22T00:54:02;97904.22;;;12.97;100.00
11314;BME280;5712;48.858;9.206;2022-10-22T00:56:30;97896.47;;;12.94;100.00
11314;BME280;5712;48.858;9.206;2022-10-22T00:58:59;97891.16;;;12.94;100.00
11314;BME280;5712;48.858;9.206;2022-10-22T01:01:29;97883.34;;;12.92;100.00
11314;BME280;5712;48.858;9.206;2022-10-22T01:03:56;97874.28;;;12.95;100.00
11314;BME280;5712;48.858;9.206;2022-10-22T01:06:26;97877.06;;;12.93;100.00
11314;BME280;5712;48.858;9.206;2022-10-22T01:09:00;97886.81;;;12.93;100.00
11314;BME280;5712;48.858;9.206;2022-10-22T01:11:34;97886.81;;;12.93;100.00
11314;BME280;5712;48.858;9.206;2022-10-22T01:14:13;97864.78;;;12.92;100.00
11314;BME280;5712;48.858;9.206;2022-10-22T01:16:48;97857.66;;;12.93;100.00
11314;BME280;5712;48.858;9.206;2022-10-22T01:19:37;97859.13;;;12.97;100.00
11314;BME280;5712;48.858;9.206;2022-10-22T01:22:10;97855.72;;;12.95;100.00
11314;BME280;5712;48.858;9.206;2022-10-22T01:24:48;97840.66;;;12.95;100.00
11314;BME280;5712;48.858;9.206;2022-10-22T01:27:24;97842.59;;;12.93;100.00
11314;BME280;5712;48.858;9.206;2022-10-22T01:30:00;97869.22;;;12.92;100.00
11314;BME280;5712;48.858;9.206;2022-10-22T01:32:30;97872.75;;;12.92;100.00
11314;BME280;5712;48.858;9.206;2022-10-22T01:35:01;97865.72;;;12.91;100.00
11314;BME280;5712;48.858;9.206;2022-10-22T01:37:32;97869.94;;;12.94;100.00
11314;BME280;5712;48.858;9.206;2022-10-22T01:40:00;97878.03;;;12.92;100.00
11314;BME280;5712;48.858;9.206;2022-10-22T01:42:27;97885.13;;;12.92;100.00
11314;BME280;5712;48.858;9.206;2022-10-22T01:44:54;97883.69;;;12.88;100.00
11314;BME280;5712;48.858;9.206;2022-10-22T01:47:34;97882.75;;;12.89;100.00
11314;BME280;5712;48.858;9.206;2022-10-22T01:50:18;97892.41;;;12.90;100.00
11314;BME280;5712;48.858;9.206;2022-10-22T01:53:05;97893.81;;;12.94;100.00
11314;BME280;5712;48.858;9.206;2022-10-22T01:55:42;97891.41;;;12.91;100.00
11314;BME280;5712;48.858;9.206;2022-10-22T01:58:24;97894.78;;;12.93;100.00
11314;BME280;5712;48.858;9.206;2022-10-22T02:00:58;97896.47;;;12.94;100.00
11314;BME280;5712;48.858;9.206;2022-10-22T02:03:34;97907.06;;;12.94;100.00
11314;BME280;5712;48.858;9.206;2022-10-22T02:06:07;97907.69;;;12.97;100.00
11314;BME280;5712;48.858;9.206;2022-10-22T02:08:38;97903.00;;;13.01;100.00
11314;BME280;5712;48.858;9.206;2022-10-22T02:11:05;97909.00;;;13.03;100.00
11314;BME280;5712;48.858;9.206;2022-10-22T02:13:34;97915.03;;;13.05;100.00
11314;BME280;5712;48.858;9.206;2022-10-22T02:16:04;97926.38;;;13.07;100.00
11314;BME280;5712;48.858;9.206;2022-10-22T02:18:34;97922.50;;;13.00;100.00
11314;BME280;5712;48.858;9.206;2022-10-22T02:21:03;97924.06;;;13.02;100.00
11314;BME280;5712;48.858;9.206;2022-10-22T02:23:31;97900.56;;;13.09;100.00
11314;BME280;5712;48.858;9.206;2022-10-22T02:26:02;97895.25;;;13.09;100.00
11314;BME280;5712;48.858;9.206;2022-10-22T02:28:36;97906.09;;;13.06;100.00
11314;BME280;5712;48.858;9.206;2022-10-22T02:31:10;97911.41;;;13.06;100.00
11314;BME280;5712;48.858;9.206;2022-10-22T02:33:43;97913.34;;;13.04;100.00
11314;BME280;5712;48.858;9.206;2022-10-22T02:36:11;97906.47;;;13.01;100.00
11314;BME280;5712;48.858;9.206;2022-10-22T02:38:39;97904.91;;;12.99;100.00
11314;BME280;5712;48.858;9.206;2022-10-22T02:41:07;97923.84;;;12.94;100.00
11314;BME280;5712;48.858;9.206;2022-10-22T02:43:39;97920.47;;;12.92;100.00
11314;BME280;5712;48.858;9.206;2022-10-22T02:46:06;97919.38;;;12.95;100.00
11314;BME280;5712;48.858;9.206;2022-10-22T02:48:33;97927.47;;;12.93;100.00
11314;BME280;5712;48.858;9.206;2022-10-22T02:51:02;97919.63;;;12.92;100.00
11314;BME280;5712;48.858;9.206;2022-10-22T02:53:29;97921.31;;;12.93;100.00
11314;BME280;5712;48.858;9.206;2022-10-22T02:55:55;97909.13;;;12.90;100.00
11314;BME280;5712;48.858;9.206;2022-10-22T02:58:22;97907.44;;;12.89;100.00
11314;BME280;5712;48.858;9.206;2022-10-22T03:00:49;97917.25;;;12.89;100.00
11314;BME280;5712;48.858;9.206;2022-10-22T03:03:15;97916.38;;;12.88;100.00
11314;BME280;5712;48.858;9.206;2022-10-22T03:05:42;97912.88;;;12.88;100.00
11314;BME280;5712;48.858;9.206;2022-10-22T03:08:10;97903.97;;;12.89;100.00
11314;BME280;5712;48.858;9.206;2022-10-22T03:10:37;97897.94;;;12.87;100.00
11314;BME280;5712;48.858;9.206;2022-10-22T03:13:03;97883.97;;;12.85;100.00
11314;BME280;5712;48.858;9.206;2022-10-22T03:15:30;97881.31;;;12.85;100.00
11314;BME280;5712;48.858;9.206;2022-10-22T03:17:56;97896.53;;;12.83;100.00
11314;BME280;5712;48.858;9.206;2022-10-22T03:20:23;97899.19;;;12.83;100.00
11314;BME280;5712;48.858;9.206;2022-10-22T03:22:50;97894.00;;;12.81;100.00
11314;BME280;5712;48.858;9.206;2022-10-22T03:25:21;97888.56;;;12.83;100.00
11314;BME280;5712;48.858;9.206;2022-10-22T03:27:50;97883.97;;;12.85;100.00
11314;BME280;5712;48.858;9.206;2022-10-22T03:30:18;97886.63;;;12.85;100.00
11314;BME280;5712;48.858;9.206;2022-10-22T03:32:44;97883.25;;;12.83;100.00
11314;BME280;5712;48.858;9.206;2022-10-22T03:35:11;97882.41;;;12.82;100.00
11314;BME280;5712;48.858;9.206;2022-10-22T03:37:38;97886.03;;;12.81;100.00
11314;BME280;5712;48.858;9.206;2022-10-22T03:40:07;97883.38;;;12.81;100.00
11314;BME280;5712;48.858;9.206;2022-10-22T03:42:35;97881.56;;;12.82;100.00
11314;BME280;5712;48.858;9.206;2022-10-22T03:45:02;97879.63;;;12.84;100.00
11314;BME280;5712;48.858;9.206;2022-10-22T03:47:29;97872.66;;;12.83;100.00
11314;BME280;5712;48.858;9.206;2022-10-22T03:49:55;97871.69;;;12.84;100.00
11314;BME280;5712;48.858;9.206;2022-10-22T03:52:22;97865.63;;;12.82;100.00
11314;BME280;5712;48.858;9.206;2022-10-22T03:54:49;97876.00;;;12.85;100.00
11314;BME280;5712;48.858;9.206;2022-10-22T03:57:15;97879.63;;;12.84;100.00
11314;BME280;5712;48.858;9.206;2022-10-22T03:59:45;97888.28;;;12.86;100.00
11314;BME280;5712;48.858;9.206;2022-10-22T04:02:12;97891.91;;;12.85;100.00
11314;BME280;5712;48.858;9.206;2022-10-22T04:04:39;97885.91;;;12.83;100.00
11314;BME280;5712;48.858;9.206;2022-10-22T04:07:06;97891.91;;;12.85;100.00
11314;BME280;5712;48.858;9.206;2022-10-22T04:09:33;97889.00;;;12.88;100.00
11314;BME280;5712;48.858;9.206;2022-10-22T04:12:00;97890.72;;;12.89;100.00
11314;BME280;5712;48.858;9.206;2022-10-22T04:14:27;97902.25;;;12.88;100.00
11314;BME280;5712;48.858;9.206;2022-10-22T04:16:55;97907.56;;;12.88;100.00
11314;BME280;5712;48.858;9.206;2022-10-22T04:19:21;97926.88;;;12.90;100.00
11314;BME280;5712;48.858;9.206;2022-10-22T04:21:48;97916.50;;;12.87;100.00
11314;BME280;5712;48.858;9.206;2022-10-22T04:24:15;97915.44;;;12.78;100.00
11314;BME280;5712;48.858;9.206;2022-10-22T04:26:42;97916.28;;;12.79;100.00
11314;BME280;5712;48.858;9.206;2022-10-22T04:29:10;97904.03;;;12.67;100.00
11314;BME280;5712;48.858;9.206;2022-10-22T04:31:37;97920.44;;;12.61;100.00
11314;BME280;5712;48.858;9.206;2022-10-22T04:34:05;97910.31;;;12.55;100.00
11314;BME280;5712;48.858;9.206;2022-10-22T04:36:32;97907.91;;;12.52;100.00
11314;BME280;5712;48.858;9.206;2022-10-22T04:39:00;97906.59;;;12.46;100.00
11314;BME280;5712;48.858;9.206;2022-10-22T04:41:28;97907.19;;;12.39;100.00
11314;BME280;5712;48.858;9.206;2022-10-22T04:43:56;97913.47;;;12.38;100.00
11314;BME280;5712;48.858;9.206;2022-10-22T04:46:23;97920.72;;;12.36;100.00
11314;BME280;5712;48.858;9.206;2022-10-22T04:48:50;97911.91;;;12.35;100.00
11314;BME280;5712;48.858;9.206;2022-10-22T04:51:21;97913.97;;;12.32;100.00
11314;BME280;5712;48.858;9.206;2022-10-22T04:53:48;97914.56;;;12.35;100.00
11314;BME280;5712;48.858;9.206;2022-10-22T04:56:17;97921.19;;;12.41;100.00
11314;BME280;5712;48.858;9.206;2022-10-22T04:58:46;97920.09;;;12.43;100.00
11314;BME280;5712;48.858;9.206;2022-10-22T05:01:14;97921.06;;;12.42;100.00
11314;BME280;5712;48.858;9.206;2022-10-22T05:03:42;97921.78;;;12.44;100.00
11314;BME280;5712;48.858;9.206;2022-10-22T05:06:09;97926.72;;;12.49;100.00
11314;BME280;5712;48.858;9.206;2022-10-22T05:08:38;97928.41;;;12.50;100.00
11314;BME280;5712;48.858;9.206;2022-10-22T05:11:12;97930.06;;;12.51;100.00
11314;BME280;5712;48.858;9.206;2022-10-22T05:13:39;97931.03;;;12.50;100.00
11314;BME280;5712;48.858;9.206;2022-10-22T05:16:06;97931.75;;;12.52;100.00
11314;BME280;5712;48.858;9.206;2022-10-22T05:18:34;97929.25;;;12.50;100.00
11314;BME280;5712;48.858;9.206;2022-10-22T05:21:01;97938.28;;;12.48;100.00
11314;BME280;5712;48.858;9.206;2022-10-22T05:23:28;97943.81;;;12.45;100.00
11314;BME280;5712;48.858;9.206;2022-10-22T05:25:56;97950.56;;;12.49;100.00
11314;BME280;5712;48.858;9.206;2022-10-22T05:28:22;97954.09;;;12.49;100.00
11314;BME280;5712;48.858;9.206;2022-10-22T05:30:52;97967.19;;;12.51;100.00
11314;BME280;5712;48.858;9.206;2022-10-22T05:33:19;97972.75;;;12.48;100.00
11314;BME280;5712;48.858;9.206;2022-10-22T05:35:46;97974.44;;;12.49;100.00
11314;BME280;5712;48.858;9.206;2022-10-22T05:38:13;97979.13;;;12.45;100.00
11314;BME280;5712;48.858;9.206;2022-10-22T05:40:40;97987.69;;;12.49;100.00
11314;BME280;5712;48.858;9.206;2022-10-22T05:43:08;97998.06;;;12.41;100.00
11314;BME280;5712;48.858;9.206;2022-10-22T05:45:36;97998.06;;;12.41;100.00
11314;BME280;5712;48.858;9.206;2022-10-22T05:48:03;98007.91;;;12.39;100.00
11314;BME280;5712;48.858;9.206;2022-10-22T05:50:30;98012.03;;;12.43;100.00
11314;BME280;5712;48.858;9.206;2022-10-22T05:52:57;98000.09;;;12.37;100.00
11314;BME280;5712;48.858;9.206;2022-10-22T05:55:23;98015.03;;;12.38;100.00
11314;BME280;5712;48.858;9.206;2022-10-22T05:57:50;98031.78;;;12.39;100.00
11314;BME280;5712;48.858;9.206;2022-10-22T06:00:18;98037.06;;;12.39;100.00
11314;BME280;5712;48.858;9.206;2022-10-22T06:02:48;98039.97;;;12.36;100.00
11314;BME280;5712;48.858;9.206;2022-10-22T06:05:15;98042.16;;;12.42;100.00
11314;BME280;5712;48.858;9.206;2022-10-22T06:07:42;98043.59;;;12.35;100.00
11314;BME280;5712;48.858;9.206;2022-10-22T06:10:13;98043.69;;;12.33;100.00
11314;BME280;5712;48.858;9.206;2022-10-22T06:12:40;98036.72;;;12.32;100.00
11314;BME280;5712;48.858;9.206;2022-10-22T06:15:13;98045.03;;;12.28;100.00
11314;BME280;5712;48.858;9.206;2022-10-22T06:17:42;98048.88;;;12.24;100.00
11314;BME280;5712;48.858;9.206;2022-10-22T06:20:10;98056.09;;;12.22;100.00
11314;BME280;5712;48.858;9.206;2022-10-22T06:22:37;98056.94;;;12.22;100.00
11314;BME280;5712;48.858;9.206;2022-10-22T06:25:05;98057.66;;;12.24;100.00
11314;BME280;5712;48.858;9.206;2022-10-22T06:27:32;98064.50;;;12.27;100.00
11314;BME280;5712;48.858;9.206;2022-10-22T06:29:59;98067.91;;;12.29;100.00
11314;BME280;5712;48.858;9.206;2022-10-22T06:32:26;98068.53;;;12.32;100.00
11314;BME280;5712;48.858;9.206;2022-10-22T06:34:54;98068.63;;;12.31;100.00
11314;BME280;5712;48.858;9.206;2022-10-22T06:37:20;98073.81;;;12.32;100.00
11314;BME280;5712;48.858;9.206;2022-10-22T06:39:47;98088.88;;;12.32;100.00
11314;BME280;5712;48.858;9.206;2022-10-22T06:42:14;98090.53;;;12.33;100.00
11314;BME280;5712;48.858;9.206;2022-10-22T06:44:40;98101.03;;;12.34;100.00
11314;BME280;5712;48.858;9.206;2022-10-22T06:47:07;98107.31;;;12.33;100.00
11314;BME280;5712;48.858;9.206;2022-10-22T06:49:33;98097.56;;;12.34;100.00
11314;BME280;5712;48.858;9.206;2022-10-22T06:52:02;98096.72;;;12.33;100.00
11314;BME280;5712;48.858;9.206;2022-10-22T06:54:28;98094.91;;;12.34;100.00
11314;BME280;5712;48.858;9.206;2022-10-22T06:56:55;98099.84;;;12.38;100.00
11314;BME280;5712;48.858;9.206;2022-10-22T06:59:21;98116.38;;;12.42;100.00
11314;BME280;5712;48.858;9.206;2022-10-22T07:01:48;98116.97;;;12.45;100.00
11314;BME280;5712;48.858;9.206;2022-10-22T07:04:15;98129.88;;;12.50;100.00
11314;BME280;5712;48.858;9.206;2022-10-22T07:06:41;98127.31;;;12.48;100.00
11314;BME280;5712;48.858;9.206;2022-10-22T07:09:10;98125.16;;;12.53;100.00
11314;BME280;5712;48.858;9.206;2022-10-22T07:11:38;98130.00;;;12.59;100.00
11314;BME280;5712;48.858;9.206;2022-10-22T07:14:06;98137.38;;;12.67;100.00
11314;BME280;5712;48.858;9.206;2022-10-22T07:16:32;98140.41;;;12.73;100.00
11314;BME280;5712;48.858;9.206;2022-10-22T07:18:59;98145.34;;;12.78;100.00
11314;BME280;5712;48.858;9.206;2022-10-22T07:21:26;98141.47;;;12.82;100.00
11314;BME280;5712;48.858;9.206;2022-10-22T07:23:53;98145.72;;;12.95;100.00
11314;BME280;5712;48.858;9.206;2022-10-22T07:26:22;98151.38;;;13.13;100.00
11314;BME280;5712;48.858;9.206;2022-10-22T07:28:49;98147.16;;;13.32;100.00
11314;BME280;5712;48.858;9.206;2022-10-22T07:31:17;98150.78;;;13.53;100.00
11314;BME280;5712;48.858;9.206;2022-10-22T07:33:44;98148.19;;;13.74;100.00
11314;BME280;5712;48.858;9.206;2022-10-22T07:36:12;98155.38;;;13.94;100.00
11314;BME280;5712;48.858;9.206;2022-10-22T07:38:42;98163.16;;;14.06;100.00
11314;BME280;5712;48.858;9.206;2022-10-22T07:41:09;98163.38;;;14.14;100.00
11314;BME280;5712;48.858;9.206;2022-10-22T07:43:37;98162.63;;;14.23;100.00
11314;BME280;5712;48.858;9.206;2022-10-22T07:46:04;98169.97;;;14.31;100.00
11314;BME280;5712;48.858;9.206;2022-10-22T07:48:32;98176.19;;;14.41;100.00
11314;BME280;5712;48.858;9.206;2022-10-22T07:50:59;98179.91;;;14.49;100.00
11314;BME280;5712;48.858;9.206;2022-10-22T07:53:26;98186.41;;;14.56;100.00
11314;BME280;5712;48.858;9.206;2022-10-22T07:55:52;98177.19;;;14.60;100.00
11314;BME280;5712;48.858;9.206;2022-10-22T07:58:20;98179.25;;;14.57;100.00
11314;BME280;5712;48.858;9.206;2022-10-22T08:00:49;98182.19;;;14.54;100.00
11314;BME280;5712;48.858;9.206;2022-10-22T08:03:17;98190.41;;;14.51;100.00
11314;BME280;5712;48.858;9.206;2022-10-22T08:05:44;98185.22;;;14.49;100.00
11314;BME280;5712;48.858;9.206;2022-10-22T08:08:12;98191.91;;;14.44;100.00
11314;BME280;5712;48.858;9.206;2022-10-22T08:10:39;98187.56;;;14.43;100.00
11314;BME280;5712;48.858;9.206;2022-10-22T08:13:06;98190.94;;;14.45;100.00
11314;BME280;5712;48.858;9.206;2022-10-22T08:15:33;98192.38;;;14.49;100.00
11314;BME280;5712;48.858;9.206;2022-10-22T08:18:01;98197.41;;;14.52;100.00
11314;BME280;5712;48.858;9.206;2022-10-22T08:20:28;98196.19;;;14.56;100.00
11314;BME280;5712;48.858;9.206;2022-10-22T08:22:55;98191.00;;;14.54;100.00
11314;BME280;5712;48.858;9.206;2022-10-22T08:25:22;98192.88;;;14.43;100.00
11314;BME280;5712;48.858;9.206;2022-10-22T08:27:48;98188.47;;;14.32;100.00
11314;BME280;5712;48.858;9.206;2022-10-22T08:30:15;98200.72;;;14.24;100.00
11314;BME280;5712;48.858;9.206;2022-10-22T08:32:43;98196.59;;;14.20;100.00
11314;BME280;5712;48.858;9.206;2022-10-22T08:35:11;98194.53;;;14.12;100.00
11314;BME280;5712;48.858;9.206;2022-10-22T08:37:37;98199.84;;;14.12;100.00
11314;BME280;5712;48.858;9.206;2022-10-22T08:40:05;98197.78;;;14.16;100.00
11314;BME280;5712;48.858;9.206;2022-10-22T08:42:58;98200.56;;;14.25;100.00
11314;BME280;5712;48.858;9.206;2022-10-22T08:45:34;98197.16;;;14.34;100.00
11314;BME280;5712;48.858;9.206;2022-10-22T08:48:14;98202.28;;;14.47;100.00
11314;BME280;5712;48.858;9.206;2022-10-22T08:50:48;98199.56;;;14.58;100.00
11314;BME280;5712;48.858;9.206;2022-10-22T08:53:17;98202.69;;;14.63;100.00
11314;BME280;5712;48.858;9.206;2022-10-22T08:55:45;98198.69;;;14.68;100.00
11314;BME280;5712;48.858;9.206;2022-10-22T08:58:20;98193.78;;;14.73;100.00
11314;BME280;5712;48.858;9.206;2022-10-22T09:00:55;98201.41;;;14.78;100.00
11314;BME280;5712;48.858;9.206;2022-10-22T09:03:36;98200.88;;;14.84;100.00
11314;BME280;5712;48.858;9.206;2022-10-22T09:06:10;98202.03;;;14.91;100.00
11314;BME280;5712;48.858;9.206;2022-10-22T09:08:39;98205.59;;;15.01;100.00
11314;BME280;5712;48.858;9.206;2022-10-22T09:11:15;98206.50;;;15.11;100.00
11314;BME280;5712;48.858;9.206;2022-10-22T09:13:45;98203.75;;;15.22;100.00
11314;BME280;5712;48.858;9.206;2022-10-22T09:16:18;98200.19;;;15.32;100.00
11314;BME280;5712;48.858;9.206;2022-10-22T09:18:54;98199.00;;;15.46;100.00
11314;BME280;5712;48.858;9.206;2022-10-22T09:21:31;98200.69;;;15.56;100.00
11314;BME280;5712;48.858;9.206;2022-10-22T09:24:03;98212.38;;;15.65;100.00
11314;BME280;5712;48.858;9.206;2022-10-22T09:26:34;98205.22;;;15.75;100.00
11314;BME280;5712;48.858;9.206;2022-10-22T09:29:03;98206.41;;;15.82;100.00
11314;BME280;5712;48.858;9.206;2022-10-22T09:31:31;98206.25;;;15.93;100.00
11314;BME280;5712;48.858;9.206;2022-10-22T09:33:59;98206.56;;;16.08;100.00
11314;BME280;5712;48.858;9.206;2022-10-22T09:36:32;98216.28;;;16.19;100.00
11314;BME280;5712;48.858;9.206;2022-10-22T09:38:59;98214.03;;;16.33;100.00
11314;BME280;5712;48.858;9.206;2022-10-22T09:41:27;98215.63;;;16.45;100.00
11314;BME280;5712;48.858;9.206;2022-10-22T09:43:55;98213.69;;;16.57;100.00
11314;BME280;5712;48.858;9.206;2022-10-22T09:46:23;98205.66;;;16.66;100.00
11314;BME280;5712;48.858;9.206;2022-10-22T09:48:59;98211.81;;;16.76;100.00
11314;BME280;5712;48.858;9.206;2022-10-22T09:51:39;98216.31;;;16.85;100.00
11314;BME280;5712;48.858;9.206;2022-10-22T09:54:15;98222.47;;;16.95;100.00
11314;BME280;5712;48.858;9.206;2022-10-22T09:56:47;98210.22;;;17.02;100.00
11314;BME280;5712;48.858;9.206;2022-10-22T09:59:14;98220.22;;;17.00;100.00
11314;BME280;5712;48.858;9.206;2022-10-22T10:01:42;98214.72;;;17.02;100.00
11314;BME280;5712;48.858;9.206;2022-10-22T10:04:11;98224.69;;;17.09;100.00
11314;BME280;5712;48.858;9.206;2022-10-22T10:06:42;98232.31;;;17.04;100.00
11314;BME280;5712;48.858;9.206;2022-10-22T10:09:14;98228.34;;;17.08;100.00
11314;BME280;5712;48.858;9.206;2022-10-22T10:11:44;98223.81;;;17.18;100.00
11314;BME280;5712;48.858;9.206;2022-10-22T10:14:14;98233.25;;;17.22;100.00
11314;BME280;5712;48.858;9.206;2022-10-22T10:16:54;98224.25;;;17.14;100.00
11314;BME280;5712;48.858;9.206;2022-10-22T10:19:43;98226.06;;;17.13;100.00
11314;BME280;5712;48.858;9.206;2022-10-22T10:22:29;98234.06;;;17.23;100.00
11314;BME280;5712;48.858;9.206;2022-10-22T10:25:30;98237.88;;;17.20;100.00
11314;BME280;5712;48.858;9.206;2022-10-22T10:28:08;98234.78;;;17.25;100.00
11314;BME280;5712;48.858;9.206;2022-10-22T10:30:42;98225.34;;;17.30;99.57
11314;BME280;5712;48.858;9.206;2022-10-22T10:33:23;98231.91;;;17.36;99.01
11314;BME280;5712;48.858;9.206;2022-10-22T10:35:55;98224.75;;;17.46;97.01
11314;BME280;5712;48.858;9.206;2022-10-22T10:38:37;98234.31;;;17.48;97.77
11314;BME280;5712;48.858;9.206;2022-10-22T10:41:15;98240.91;;;17.35;99.27
11314;BME280;5712;48.858;9.206;2022-10-22T10:43:54;98238.00;;;17.28;98.93
11314;BME280;5712;48.858;9.206;2022-10-22T10:46:30;98240.41;;;17.22;98.74
11314;BME280;5712;48.858;9.206;2022-10-22T10:49:00;98222.84;;;17.19;93.32
11314;BME280;5712;48.858;9.206;2022-10-22T10:51:36;98232.00;;;17.07;94.20
11314;BME280;5712;48.858;9.206;2022-10-22T10:54:19;98251.00;;;17.04;95.94
11314;BME280;5712;48.858;9.206;2022-10-22T10:56:51;98254.09;;;17.09;98.93
11314;BME280;5712;48.858;9.206;2022-10-22T10:59:29;98254.75;;;17.21;99.82
11314;BME280;5712;48.858;9.206;2022-10-22T11:02:14;98258.66;;;17.26;100.00
11314;BME280;5712;48.858;9.206;2022-10-22T11:04:59;98245.72;;;17.41;97.73
11314;BME280;5712;48.858;9.206;2022-10-22T11:07:32;98225.44;;;17.48;94.10
11314;BME280;5712;48.858;9.206;2022-10-22T11:10:08;98240.06;;;17.53;96.14
11314;BME280;5712;48.858;9.206;2022-10-22T11:12:41;98241.16;;;17.60;97.94
11314;BME280;5712;48.858;9.206;2022-10-22T11:15:19;98229.34;;;17.63;96.65
11314;BME280;5712;48.858;9.206;2022-10-22T11:17:48;98236.63;;;17.70;97.52
11314;BME280;5712;48.858;9.206;2022-10-22T11:20:18;98238.31;;;17.71;96.59
11314;BME280;5712;48.858;9.206;2022-10-22T11:22:49;98218.22;;;17.94;91.35
11314;BME280;5712;48.858;9.206;2022-10-22T11:25:21;98230.59;;;17.95;92.81
11314;BME280;5712;48.858;9.206;2022-10-22T11:27:52;98226.66;;;17.90;92.23
11314;BME280;5712;48.858;9.206;2022-10-22T11:30:22;98220.16;;;17.92;91.33
11314;BME280;5712;48.858;9.206;2022-10-22T11:32:52;98212.34;;;18.08;90.66
11314;BME280;5712;48.858;9.206;2022-10-22T11:35:23;98208.53;;;18.28;89.73
11314;BME280;5712;48.858;9.206;2022-10-22T11:37:53;98205.13;;;18.36;88.74
11314;BME280;5712;48.858;9.206;2022-10-22T11:40:31;98209.53;;;18.27;89.52
11314;BME280;5712;48.858;9.206;2022-10-22T11:43:04;98214.34;;;18.24;89.62
11314;BME280;5712;48.858;9.206;2022-10-22T11:45:34;98211.34;;;18.09;89.04
11314;BME280;5712;48.858;9.206;2022-10-22T11:48:11;98199.41;;;18.31;86.90
11314;BME280;5712;48.858;9.206;2022-10-22T11:50:47;98189.53;;;18.31;86.11
11314;BME280;5712;48.858;9.206;2022-10-22T11:53:25;98200.81;;;18.25;86.59
11314;BME280;5712;48.858;9.206;2022-10-22T11:55:56;98197.75;;;18.20;86.84
11314;BME280;5712;48.858;9.206;2022-10-22T11:58:33;98198.91;;;18.18;86.97
11314;BME280;5712;48.858;9.206;2022-10-22T12:01:27;98172.94;;;18.28;83.61
11314;BME280;5712;48.858;9.206;2022-10-22T12:04:21;98187.28;;;18.27;84.13
11314;BME280;5712;48.858;9.206;2022-10-22T12:06:59;98184.56;;;18.54;84.34
11314;BME280;5712;48.858;9.206;2022-10-22T12:09:27;98173.31;;;18.68;81.75
11314;BME280;5712;48.858;9.206;2022-10-22T12:12:04;98177.78;;;18.85;83.21
11314;BME280;5712;48.858;9.206;2022-10-22T12:14:50;98185.25;;;18.73;84.25
11314;BME280;5712;48.858;9.206;2022-10-22T12:17:19;98164.78;;;18.72;80.07
11314;BME280;5712;48.858;9.206;2022-10-22T12:19:48;98170.53;;;18.77;81.45
11314;BME280;5712;48.858;9.206;2022-10-22T12:22:19;98155.59;;;18.75;78.62
11314;BME280;5712;48.858;9.206;2022-10-22T12:24:48;98159.09;;;18.67;79.14
11314;BME280;5712;48.858;9.206;2022-10-22T12:27:21;98173.06;;;18.79;81.05
11314;BME280;5712;48.858;9.206;2022-10-22T12:29:52;98169.31;;;18.97;81.26
11314;BME280;5712;48.858;9.206;2022-10-22T12:32:20;98154.81;;;19.25;80.03
11314;BME280;5712;48.858;9.206;2022-10-22T12:34:47;98137.56;;;19.28;76.89
11314;BME280;5712;48.858;9.206;2022-10-22T12:37:15;98114.63;;;19.25;73.79
11314;BME280;5712;48.858;9.206;2022-10-22T12:39:44;98121.97;;;19.23;74.52
11314;BME280;5712;48.858;9.206;2022-10-22T12:42:12;98130.84;;;19.24;75.71
11314;BME280;5712;48.858;9.206;2022-10-22T12:44:41;98114.63;;;19.33;73.44
11314;BME280;5712;48.858;9.206;2022-10-22T12:47:14;98097.88;;;19.23;70.84
11314;BME280;5712;48.858;9.206;2022-10-22T12:49:43;98099.47;;;19.16;70.56
11314;BME280;5712;48.858;9.206;2022-10-22T12:52:14;98116.94;;;19.20;72.55
11314;BME280;5712;48.858;9.206;2022-10-22T12:54:44;98110.25;;;19.24;71.61
11314;BME280;5712;48.858;9.206;2022-10-22T12:57:15;98108.94;;;19.28;71.99
11314;BME280;5712;48.858;9.206;2022-10-22T12:59:45;98102.88;;;19.26;70.93
11314;BME280;5712;48.858;9.206;2022-10-22T13:02:17;98104.50;;;19.19;70.64
11314;BME280;5712;48.858;9.206;2022-10-22T13:05:13;98105.66;;;19.17;70.41
11314;BME280;5712;48.858;9.206;2022-10-22T13:07:41;98105.81;;;19.15;70.79
11314;BME280;5712;48.858;9.206;2022-10-22T13:10:16;98105.50;;;19.18;71.20
11314;BME280;5712;48.858;9.206;2022-10-22T13:12:47;98109.09;;;19.27;70.85
11314;BME280;5712;48.858;9.206;2022-10-22T13:15:21;98098.53;;;19.25;69.23
11314;BME280;5712;48.858;9.206;2022-10-22T13:17:48;98102.72;;;19.02;69.38
11314;BME280;5712;48.858;9.206;2022-10-22T13:20:18;98102.78;;;19.10;70.59